sensor_id;sensor_type;location;lat;lon;timestamp;P1;durP1;ratioP1;P2;durP2;ratioP2
11418;SDS011;32800;44.876;13.880;2023-04-15T00:00:02;1.63;;;0.97;;
11418;SDS011;32800;44.876;13.880;2023-04-15T00:02:27;1.00;;;0.90;;
11418;SDS011;32800;44.876;13.880;2023-04-15T00:04:53;0.80;;;0.80;;
11418;SDS011;32800;44.876;13.880;2023-04-15T00:07:18;1.57;;;0.90;;
11418;SDS011;32800;44.876;13.880;2023-04-15T00:09:44;1.03;;;0.90;;
11418;SDS011;32800;44.876;13.880;2023-04-15T00:12:10;1.60;;;0.90;;
11418;SDS011;32800;44.876;13.880;2023-04-15T00:14:36;1.40;;;0.90;;
11418;SDS011;32800;44.876;13.880;2023-04-15T00:17:02;1.33;;;0.90;;
11418;SDS011;32800;44.876;13.880;2023-04-15T00:19:28;0.73;;;0.70;;
11418;SDS011;32800;44.876;13.880;2023-04-15T00:21:55;1.40;;;0.90;;
11418;SDS011;32800;44.876;13.880;2023-04-15T00:24:20;1.00;;;0.90;;
11418;SDS011;32800;44.876;13.880;2023-04-15T00:26:46;1.37;;;0.90;;
11418;SDS011;32800;44.876;13.880;2023-04-15T00:29:11;1.20;;;0.90;;
11418;SDS011;32800;44.876;13.880;2023-04-15T00:31:37;1.30;;;0.90;;
11418;SDS011;32800;44.876;13.880;2023-04-15T00:34:03;1.10;;;1.00;;
11418;SDS011;32800;44.876;13.880;2023-04-15T00:36:28;1.23;;;0.90;;
11418;SDS011;32800;44.876;13.880;2023-04-15T00:38:54;1.83;;;0.90;;
11418;SDS011;32800;44.876;13.880;2023-04-15T00:41:19;1.03;;;0.93;;
11418;SDS011;32800;44.876;13.880;2023-04-15T00:43:45;0.87;;;0.80;;
11418;SDS011;32800;44.876;13.880;2023-04-15T00:46:12;0.90;;;0.80;;
11418;SDS011;32800;44.876;13.880;2023-04-15T00:48:38;2.07;;;0.93;;
11418;SDS011;32800;44.876;13.880;2023-04-15T00:51:04;0.70;;;0.70;;
11418;SDS011;32800;44.876;13.880;2023-04-15T00:53:31;0.97;;;0.90;;
11418;SDS011;32800;44.876;13.880;2023-04-15T00:55:57;0.83;;;0.83;;
11418;SDS011;32800;44.876;13.880;2023-04-15T00:58:22;1.00;;;0.90;;
11418;SDS011;32800;44.876;13.880;2023-04-15T01:00:48;2.60;;;0.87;;
11418;SDS011;32800;44.876;13.880;2023-04-15T01:03:18;1.73;;;0.90;;
11418;SDS011;32800;44.876;13.880;2023-04-15T01:05:44;1.37;;;0.90;;
11418;SDS011;32800;44.876;13.880;2023-04-15T01:08:10;0.97;;;0.83;;
11418;SDS011;32800;44.876;13.880;2023-04-15T01:10:36;1.07;;;0.80;;
11418;SDS011;32800;44.876;13.880;2023-04-15T01:13:02;0.70;;;0.70;;
11418;SDS011;32800;44.876;13.880;2023-04-15T01:15:28;1.30;;;0.90;;
11418;SDS011;32800;44.876;13.880;2023-04-15T01:17:53;1.23;;;1.00;;
11418;SDS011;32800;44.876;13.880;2023-04-15T01:20:19;0.57;;;0.57;;
11418;SDS011;32800;44.876;13.880;2023-04-15T01:22:46;1.83;;;0.70;;
11418;SDS011;32800;44.876;13.880;2023-04-15T01:25:17;1.10;;;0.80;;
11418;SDS011;32800;44.876;13.880;2023-04-15T01:27:43;4.93;;;0.90;;
11418;SDS011;32800;44.876;13.880;2023-04-15T01:30:09;0.80;;;0.80;;
11418;SDS011;32800;44.876;13.880;2023-04-15T01:32:35;1.00;;;0.90;;
11418;SDS011;32800;44.876;13.880;2023-04-15T01:35:01;0.80;;;0.70;;
11418;SDS011;32800;44.876;13.880;2023-04-15T01:37:27;1.23;;;0.77;;
11418;SDS011;32800;44.876;13.880;2023-04-15T01:39:54;0.70;;;0.60;;
11418;SDS011;32800;44.876;13.880;2023-04-15T01:42:21;1.27;;;0.70;;
11418;SDS011;32800;44.876;13.880;2023-04-15T01:44:46;1.10;;;0.73;;
11418;SDS011;32800;44.876;13.880;2023-04-15T01:47:12;0.80;;;0.80;;
11418;SDS011;32800;44.876;13.880;2023-04-15T01:49:38;3.60;;;0.70;;
11418;SDS011;32800;44.876;13.880;2023-04-15T01:52:03;2.27;;;0.90;;
11418;SDS011;32800;44.876;13.880;2023-04-15T01:54:29;0.97;;;0.77;;
11418;SDS011;32800;44.876;13.880;2023-04-15T01:56:55;0.80;;;0.80;;
11418;SDS011;32800;44.876;13.880;2023-04-15T01:59:21;1.70;;;1.00;;
11418;SDS011;32800;44.876;13.880;2023-04-15T02:01:47;2.50;;;0.80;;
11418;SDS011;32800;44.876;13.880;2023-04-15T02:04:12;1.07;;;0.80;;
11418;SDS011;32800;44.876;13.880;2023-04-15T02:06:43;1.67;;;0.70;;
11418;SDS011;32800;44.876;13.880;2023-04-15T02:09:10;0.80;;;0.80;;
11418;SDS011;32800;44.876;13.880;2023-04-15T02:11:35;1.07;;;0.80;;
11418;SDS011;32800;44.876;13.880;2023-04-15T02:14:03;1.00;;;0.80;;
11418;SDS011;32800;44.876;13.880;2023-04-15T02:16:30;0.77;;;0.77;;
11418;SDS011;32800;44.876;13.880;2023-04-15T02:18:56;0.93;;;0.83;;
11418;SDS011;32800;44.876;13.880;2023-04-15T02:21:22;1.10;;;0.63;;
11418;SDS011;32800;44.876;13.880;2023-04-15T02:23:47;1.30;;;0.80;;
11418;SDS011;32800;44.876;13.880;2023-04-15T02:26:13;1.10;;;0.77;;
11418;SDS011;32800;44.876;13.880;2023-04-15T02:28:38;0.70;;;0.70;;
11418;SDS011;32800;44.876;13.880;2023-04-15T02:31:05;1.30;;;0.80;;
11418;SDS011;32800;44.876;13.880;2023-04-15T02:33:31;2.17;;;0.77;;
11418;SDS011;32800;44.876;13.880;2023-04-15T02:35:56;0.67;;;0.67;;
11418;SDS011;32800;44.876;13.880;2023-04-15T02:38:23;0.80;;;0.80;;
11418;SDS011;32800;44.876;13.880;2023-04-15T02:40:49;0.97;;;0.70;;
11418;SDS011;32800;44.876;13.880;2023-04-15T02:43:15;0.73;;;0.70;;
11418;SDS011;32800;44.876;13.880;2023-04-15T02:45:44;0.90;;;0.70;;
11418;SDS011;32800;44.876;13.880;2023-04-15T02:48:11;1.00;;;0.90;;
11418;SDS011;32800;44.876;13.880;2023-04-15T02:50:36;0.80;;;0.80;;
11418;SDS011;32800;44.876;13.880;2023-04-15T02:53:05;2.67;;;0.77;;
11418;SDS011;32800;44.876;13.880;2023-04-15T02:55:31;0.80;;;0.80;;
11418;SDS011;32800;44.876;13.880;2023-04-15T02:57:56;0.77;;;0.77;;
11418;SDS011;32800;44.876;13.880;2023-04-15T03:00:25;0.70;;;0.70;;
11418;SDS011;32800;44.876;13.880;2023-04-15T03:02:56;0.70;;;0.70;;
11418;SDS011;32800;44.876;13.880;2023-04-15T03:05:22;1.53;;;0.70;;
11418;SDS011;32800;44.876;13.880;2023-04-15T03:07:49;1.53;;;0.90;;
11418;SDS011;32800;44.876;13.880;2023-04-15T03:10:16;1.20;;;0.90;;
11418;SDS011;32800;44.876;13.880;2023-04-15T03:12:41;0.50;;;0.50;;
11418;SDS011;32800;44.876;13.880;2023-04-15T03:15:07;0.73;;;0.70;;
11418;SDS011;32800;44.876;13.880;2023-04-15T03:17:33;0.80;;;0.80;;
11418;SDS011;32800;44.876;13.880;2023-04-15T03:20:00;1.03;;;0.77;;
11418;SDS011;32800;44.876;13.880;2023-04-15T03:22:30;0.77;;;0.77;;
11418;SDS011;32800;44.876;13.880;2023-04-15T03:24:55;1.80;;;0.60;;
11418;SDS011;32800;44.876;13.880;2023-04-15T03:27:21;0.70;;;0.70;;
11418;SDS011;32800;44.876;13.880;2023-04-15T03:29:47;0.53;;;0.53;;
11418;SDS011;32800;44.876;13.880;2023-04-15T03:32:13;0.50;;;0.50;;
11418;SDS011;32800;44.876;13.880;2023-04-15T03:34:39;1.00;;;0.90;;
11418;SDS011;32800;44.876;13.880;2023-04-15T03:37:06;0.97;;;0.77;;
11418;SDS011;32800;44.876;13.880;2023-04-15T03:39:31;3.33;;;0.73;;
11418;SDS011;32800;44.876;13.880;2023-04-15T03:41:57;1.37;;;0.80;;
11418;SDS011;32800;44.876;13.880;2023-04-15T03:44:24;2.00;;;0.90;;
11418;SDS011;32800;44.876;13.880;2023-04-15T03:46:50;2.03;;;0.60;;
11418;SDS011;32800;44.876;13.880;2023-04-15T03:49:16;0.97;;;0.80;;
11418;SDS011;32800;44.876;13.880;2023-04-15T03:51:43;0.67;;;0.67;;
11418;SDS011;32800;44.876;13.880;2023-04-15T03:54:08;0.63;;;0.50;;
11418;SDS011;32800;44.876;13.880;2023-04-15T03:56:34;0.70;;;0.70;;
11418;SDS011;32800;44.876;13.880;2023-04-15T03:59:00;0.70;;;0.60;;
11418;SDS011;32800;44.876;13.880;2023-04-15T04:01:25;0.70;;;0.53;;
11418;SDS011;32800;44.876;13.880;2023-04-15T04:03:51;0.40;;;0.40;;
11418;SDS011;32800;44.876;13.880;2023-04-15T04:06:16;1.47;;;0.80;;
11418;SDS011;32800;44.876;13.880;2023-04-15T04:08:42;0.67;;;0.67;;
11418;SDS011;32800;44.876;13.880;2023-04-15T04:11:07;1.00;;;0.70;;
11418;SDS011;32800;44.876;13.880;2023-04-15T04:13:33;1.43;;;0.80;;
11418;SDS011;32800;44.876;13.880;2023-04-15T04:15:59;0.60;;;0.60;;
11418;SDS011;32800;44.876;13.880;2023-04-15T04:18:24;0.67;;;0.60;;
11418;SDS011;32800;44.876;13.880;2023-04-15T04:20:50;0.63;;;0.60;;
11418;SDS011;32800;44.876;13.880;2023-04-15T04:23:15;0.93;;;0.73;;
11418;SDS011;32800;44.876;13.880;2023-04-15T04:25:41;1.03;;;0.60;;
11418;SDS011;32800;44.876;13.880;2023-04-15T04:28:06;0.53;;;0.53;;
11418;SDS011;32800;44.876;13.880;2023-04-15T04:30:32;1.00;;;0.90;;
11418;SDS011;32800;44.876;13.880;2023-04-15T04:32:57;0.77;;;0.70;;
11418;SDS011;32800;44.876;13.880;2023-04-15T04:35:23;3.70;;;0.70;;
11418;SDS011;32800;44.876;13.880;2023-04-15T04:37:48;1.00;;;0.90;;
11418;SDS011;32800;44.876;13.880;2023-04-15T04:40:14;0.87;;;0.67;;
11418;SDS011;32800;44.876;13.880;2023-04-15T04:42:40;0.73;;;0.60;;
11418;SDS011;32800;44.876;13.880;2023-04-15T04:45:06;0.60;;;0.60;;
11418;SDS011;32800;44.876;13.880;2023-04-15T04:47:32;0.63;;;0.63;;
11418;SDS011;32800;44.876;13.880;2023-04-15T04:49:58;1.90;;;0.80;;
11418;SDS011;32800;44.876;13.880;2023-04-15T04:52:23;0.67;;;0.67;;
11418;SDS011;32800;44.876;13.880;2023-04-15T04:54:49;0.70;;;0.60;;
11418;SDS011;32800;44.876;13.880;2023-04-15T04:57:14;0.70;;;0.70;;
11418;SDS011;32800;44.876;13.880;2023-04-15T04:59:40;0.60;;;0.60;;
11418;SDS011;32800;44.876;13.880;2023-04-15T05:02:06;0.70;;;0.70;;
11418;SDS011;32800;44.876;13.880;2023-04-15T05:04:31;0.70;;;0.70;;
11418;SDS011;32800;44.876;13.880;2023-04-15T05:06:57;0.60;;;0.60;;
11418;SDS011;32800;44.876;13.880;2023-04-15T05:09:23;0.60;;;0.60;;
11418;SDS011;32800;44.876;13.880;2023-04-15T05:11:49;1.00;;;0.73;;
11418;SDS011;32800;44.876;13.880;2023-04-15T05:14:14;0.70;;;0.70;;
11418;SDS011;32800;44.876;13.880;2023-04-15T05:16:40;2.33;;;0.70;;
11418;SDS011;32800;44.876;13.880;2023-04-15T05:19:05;0.60;;;0.60;;
11418;SDS011;32800;44.876;13.880;2023-04-15T05:21:31;2.20;;;0.70;;
11418;SDS011;32800;44.876;13.880;2023-04-15T05:23:57;0.50;;;0.50;;
11418;SDS011;32800;44.876;13.880;2023-04-15T05:26:23;1.77;;;0.60;;
11418;SDS011;32800;44.876;13.880;2023-04-15T05:28:48;0.77;;;0.70;;
11418;SDS011;32800;44.876;13.880;2023-04-15T05:31:14;0.60;;;0.60;;
11418;SDS011;32800;44.876;13.880;2023-04-15T05:33:40;1.10;;;0.80;;
11418;SDS011;32800;44.876;13.880;2023-04-15T05:36:06;0.60;;;0.60;;
11418;SDS011;32800;44.876;13.880;2023-04-15T05:38:32;0.80;;;0.60;;
11418;SDS011;32800;44.876;13.880;2023-04-15T05:40:57;0.50;;;0.50;;
11418;SDS011;32800;44.876;13.880;2023-04-15T05:43:23;0.57;;;0.57;;
11418;SDS011;32800;44.876;13.880;2023-04-15T05:45:49;0.87;;;0.67;;
11418;SDS011;32800;44.876;13.880;2023-04-15T05:48:14;0.50;;;0.50;;
11418;SDS011;32800;44.876;13.880;2023-04-15T05:50:40;1.57;;;0.73;;
11418;SDS011;32800;44.876;13.880;2023-04-15T05:53:06;1.10;;;0.50;;
11418;SDS011;32800;44.876;13.880;2023-04-15T05:55:32;0.60;;;0.60;;
11418;SDS011;32800;44.876;13.880;2023-04-15T05:57:58;0.63;;;0.63;;
11418;SDS011;32800;44.876;13.880;2023-04-15T06:00:24;0.70;;;0.50;;
11418;SDS011;32800;44.876;13.880;2023-04-15T06:02:50;0.57;;;0.50;;
11418;SDS011;32800;44.876;13.880;2023-04-15T06:05:18;0.93;;;0.60;;
11418;SDS011;32800;44.876;13.880;2023-04-15T06:07:44;0.70;;;0.70;;
11418;SDS011;32800;44.876;13.880;2023-04-15T06:10:10;1.60;;;0.53;;
11418;SDS011;32800;44.876;13.880;2023-04-15T06:12:36;0.73;;;0.60;;
11418;SDS011;32800;44.876;13.880;2023-04-15T06:15:01;0.63;;;0.63;;
11418;SDS011;32800;44.876;13.880;2023-04-15T06:17:28;1.03;;;0.70;;
11418;SDS011;32800;44.876;13.880;2023-04-15T06:19:54;0.70;;;0.70;;
11418;SDS011;32800;44.876;13.880;2023-04-15T06:22:21;0.60;;;0.60;;
11418;SDS011;32800;44.876;13.880;2023-04-15T06:24:48;0.57;;;0.57;;
11418;SDS011;32800;44.876;13.880;2023-04-15T06:27:17;1.50;;;0.70;;
11418;SDS011;32800;44.876;13.880;2023-04-15T06:29:45;0.70;;;0.70;;
11418;SDS011;32800;44.876;13.880;2023-04-15T06:32:16;1.23;;;0.67;;
11418;SDS011;32800;44.876;13.880;2023-04-15T06:34:42;0.60;;;0.60;;
11418;SDS011;32800;44.876;13.880;2023-04-15T06:37:07;0.63;;;0.63;;
11418;SDS011;32800;44.876;13.880;2023-04-15T06:39:35;0.50;;;0.50;;
11418;SDS011;32800;44.876;13.880;2023-04-15T06:42:01;0.60;;;0.60;;
11418;SDS011;32800;44.876;13.880;2023-04-15T06:44:28;0.60;;;0.60;;
11418;SDS011;32800;44.876;13.880;2023-04-15T06:46:53;0.57;;;0.57;;
11418;SDS011;32800;44.876;13.880;2023-04-15T06:49:19;0.60;;;0.60;;
11418;SDS011;32800;44.876;13.880;2023-04-15T06:51:44;0.93;;;0.60;;
11418;SDS011;32800;44.876;13.880;2023-04-15T06:54:10;0.60;;;0.60;;
11418;SDS011;32800;44.876;13.880;2023-04-15T06:56:36;0.57;;;0.57;;
11418;SDS011;32800;44.876;13.880;2023-04-15T06:59:01;0.67;;;0.67;;
11418;SDS011;32800;44.876;13.880;2023-04-15T07:01:27;0.70;;;0.70;;
11418;SDS011;32800;44.876;13.880;2023-04-15T07:03:53;0.90;;;0.60;;
11418;SDS011;32800;44.876;13.880;2023-04-15T07:06:18;1.00;;;0.80;;
11418;SDS011;32800;44.876;13.880;2023-04-15T07:08:44;0.90;;;0.70;;
11418;SDS011;32800;44.876;13.880;2023-04-15T07:11:09;0.60;;;0.53;;
11418;SDS011;32800;44.876;13.880;2023-04-15T07:13:35;0.50;;;0.50;;
11418;SDS011;32800;44.876;13.880;2023-04-15T07:16:00;0.60;;;0.60;;
11418;SDS011;32800;44.876;13.880;2023-04-15T07:18:26;0.93;;;0.60;;
11418;SDS011;32800;44.876;13.880;2023-04-15T07:20:51;0.60;;;0.60;;
11418;SDS011;32800;44.876;13.880;2023-04-15T07:23:17;0.60;;;0.60;;
11418;SDS011;32800;44.876;13.880;2023-04-15T07:25:42;0.60;;;0.60;;
11418;SDS011;32800;44.876;13.880;2023-04-15T07:28:08;0.50;;;0.50;;
11418;SDS011;32800;44.876;13.880;2023-04-15T07:30:33;1.00;;;0.50;;
11418;SDS011;32800;44.876;13.880;2023-04-15T07:33:00;1.43;;;0.60;;
11418;SDS011;32800;44.876;13.880;2023-04-15T07:35:26;0.70;;;0.60;;
11418;SDS011;32800;44.876;13.880;2023-04-15T07:37:53;0.63;;;0.50;;
11418;SDS011;32800;44.876;13.880;2023-04-15T07:40:19;1.07;;;0.60;;
11418;SDS011;32800;44.876;13.880;2023-04-15T07:42:44;0.80;;;0.60;;
11418;SDS011;32800;44.876;13.880;2023-04-15T07:45:10;0.67;;;0.60;;
11418;SDS011;32800;44.876;13.880;2023-04-15T07:47:36;0.97;;;0.67;;
11418;SDS011;32800;44.876;13.880;2023-04-15T07:50:02;0.50;;;0.50;;
11418;SDS011;32800;44.876;13.880;2023-04-15T07:52:28;0.63;;;0.60;;
11418;SDS011;32800;44.876;13.880;2023-04-15T07:54:53;0.60;;;0.60;;
11418;SDS011;32800;44.876;13.880;2023-04-15T07:57:19;0.70;;;0.70;;
11418;SDS011;32800;44.876;13.880;2023-04-15T07:59:44;1.50;;;0.60;;
11418;SDS011;32800;44.876;13.880;2023-04-15T08:02:10;0.80;;;0.60;;
11418;SDS011;32800;44.876;13.880;2023-04-15T08:04:36;0.50;;;0.50;;
11418;SDS011;32800;44.876;13.880;2023-04-15T08:07:01;0.70;;;0.70;;
11418;SDS011;32800;44.876;13.880;2023-04-15T08:09:28;0.73;;;0.63;;
11418;SDS011;32800;44.876;13.880;2023-04-15T08:11:54;3.00;;;0.70;;
11418;SDS011;32800;44.876;13.880;2023-04-15T08:14:21;0.70;;;0.50;;
11418;SDS011;32800;44.876;13.880;2023-04-15T08:16:46;0.50;;;0.50;;
11418;SDS011;32800;44.876;13.880;2023-04-15T08:19:12;0.77;;;0.73;;
11418;SDS011;32800;44.876;13.880;2023-04-15T08:21:37;0.60;;;0.60;;
11418;SDS011;32800;44.876;13.880;2023-04-15T08:24:03;5.53;;;0.63;;
11418;SDS011;32800;44.876;13.880;2023-04-15T08:26:29;4.13;;;0.90;;
11418;SDS011;32800;44.876;13.880;2023-04-15T08:28:55;4.10;;;0.80;;
11418;SDS011;32800;44.876;13.880;2023-04-15T08:31:21;1.87;;;0.70;;
11418;SDS011;32800;44.876;13.880;2023-04-15T08:33:46;1.70;;;0.80;;
11418;SDS011;32800;44.876;13.880;2023-04-15T08:36:12;1.67;;;0.80;;
11418;SDS011;32800;44.876;13.880;2023-04-15T08:38:38;2.47;;;0.93;;
11418;SDS011;32800;44.876;13.880;2023-04-15T08:41:09;1.83;;;0.97;;
11418;SDS011;32800;44.876;13.880;2023-04-15T08:43:41;2.97;;;1.53;;
11418;SDS011;32800;44.876;13.880;2023-04-15T08:46:32;1.53;;;0.90;;
11418;SDS011;32800;44.876;13.880;2023-04-15T08:48:58;2.47;;;1.00;;
11418;SDS011;32800;44.876;13.880;2023-04-15T08:51:24;3.03;;;1.00;;
11418;SDS011;32800;44.876;13.880;2023-04-15T08:53:51;4.33;;;1.10;;
11418;SDS011;32800;44.876;13.880;2023-04-15T08:56:17;3.57;;;1.40;;
11418;SDS011;32800;44.876;13.880;2023-04-15T08:58:44;6.40;;;1.27;;
11418;SDS011;32800;44.876;13.880;2023-04-15T09:01:11;4.67;;;1.37;;
11418;SDS011;32800;44.876;13.880;2023-04-15T09:03:37;5.47;;;1.20;;
11418;SDS011;32800;44.876;13.880;2023-04-15T09:06:03;4.17;;;1.20;;
11418;SDS011;32800;44.876;13.880;2023-04-15T09:08:30;3.87;;;1.53;;
11418;SDS011;32800;44.876;13.880;2023-04-15T09:10:56;3.90;;;1.20;;
11418;SDS011;32800;44.876;13.880;2023-04-15T09:13:21;5.63;;;1.23;;
11418;SDS011;32800;44.876;13.880;2023-04-15T09:15:47;2.80;;;1.20;;
11418;SDS011;32800;44.876;13.880;2023-04-15T09:18:12;4.10;;;1.20;;
11418;SDS011;32800;44.876;13.880;2023-04-15T09:20:39;3.13;;;1.60;;
11418;SDS011;32800;44.876;13.880;2023-04-15T09:23:12;5.73;;;1.93;;
11418;SDS011;32800;44.876;13.880;2023-04-15T09:25:38;5.80;;;1.47;;
11418;SDS011;32800;44.876;13.880;2023-04-15T09:28:06;4.75;;;1.55;;
11418;SDS011;32800;44.876;13.880;2023-04-15T09:30:32;2.42;;;0.95;;
11418;SDS011;32800;44.876;13.880;2023-04-15T09:32:59;4.43;;;1.60;;
11418;SDS011;32800;44.876;13.880;2023-04-15T09:35:32;3.50;;;1.15;;
11418;SDS011;32800;44.876;13.880;2023-04-15T09:38:05;4.80;;;1.38;;
11418;SDS011;32800;44.876;13.880;2023-04-15T09:40:32;4.28;;;1.23;;
11418;SDS011;32800;44.876;13.880;2023-04-15T09:42:59;5.65;;;1.70;;
11418;SDS011;32800;44.876;13.880;2023-04-15T09:45:26;10.90;;;1.92;;
11418;SDS011;32800;44.876;13.880;2023-04-15T09:47:52;6.20;;;1.25;;
11418;SDS011;32800;44.876;13.880;2023-04-15T09:50:18;5.53;;;1.70;;
11418;SDS011;32800;44.876;13.880;2023-04-15T09:52:44;6.00;;;1.50;;
11418;SDS011;32800;44.876;13.880;2023-04-15T09:55:10;4.78;;;1.75;;
11418;SDS011;32800;44.876;13.880;2023-04-15T09:57:37;5.18;;;1.30;;
11418;SDS011;32800;44.876;13.880;2023-04-15T10:00:05;5.90;;;1.60;;
11418;SDS011;32800;44.876;13.880;2023-04-15T10:02:33;5.72;;;1.48;;
11418;SDS011;32800;44.876;13.880;2023-04-15T10:05:00;3.90;;;1.55;;
11418;SDS011;32800;44.876;13.880;2023-04-15T10:07:26;5.70;;;1.70;;
11418;SDS011;32800;44.876;13.880;2023-04-15T10:09:51;6.18;;;1.40;;
11418;SDS011;32800;44.876;13.880;2023-04-15T10:12:17;4.05;;;1.30;;
11418;SDS011;32800;44.876;13.880;2023-04-15T10:14:44;7.40;;;1.75;;
11418;SDS011;32800;44.876;13.880;2023-04-15T10:17:13;3.55;;;1.30;;
11418;SDS011;32800;44.876;13.880;2023-04-15T10:19:40;2.90;;;1.20;;
11418;SDS011;32800;44.876;13.880;2023-04-15T10:22:06;4.38;;;1.50;;
11418;SDS011;32800;44.876;13.880;2023-04-15T10:24:32;8.50;;;1.90;;
11418;SDS011;32800;44.876;13.880;2023-04-15T10:27:01;3.07;;;1.50;;
11418;SDS011;32800;44.876;13.880;2023-04-15T10:29:30;4.77;;;1.50;;
11418;SDS011;32800;44.876;13.880;2023-04-15T10:31:58;6.57;;;1.73;;
11418;SDS011;32800;44.876;13.880;2023-04-15T10:34:25;4.07;;;1.20;;
11418;SDS011;32800;44.876;13.880;2023-04-15T10:36:55;2.80;;;1.10;;
11418;SDS011;32800;44.876;13.880;2023-04-15T10:44:38;6.10;;;1.47;;
11418;SDS011;32800;44.876;13.880;2023-04-15T10:47:18;4.87;;;1.70;;
11418;SDS011;32800;44.876;13.880;2023-04-15T10:49:49;3.47;;;1.20;;
11418;SDS011;32800;44.876;13.880;2023-04-15T10:52:25;3.00;;;1.07;;
11418;SDS011;32800;44.876;13.880;2023-04-15T10:57:37;4.23;;;1.30;;
11418;SDS011;32800;44.876;13.880;2023-04-15T11:02:39;3.23;;;1.13;;
11418;SDS011;32800;44.876;13.880;2023-04-15T11:05:15;5.60;;;1.20;;
11418;SDS011;32800;44.876;13.880;2023-04-15T11:07:51;2.60;;;1.00;;
11418;SDS011;32800;44.876;13.880;2023-04-15T11:12:51;2.53;;;1.20;;
11418;SDS011;32800;44.876;13.880;2023-04-15T11:18:11;3.60;;;1.13;;
11418;SDS011;32800;44.876;13.880;2023-04-15T11:20:39;4.47;;;1.30;;
11418;SDS011;32800;44.876;13.880;2023-04-15T11:23:06;2.90;;;1.20;;
11418;SDS011;32800;44.876;13.880;2023-04-15T11:25:33;4.90;;;1.20;;
11418;SDS011;32800;44.876;13.880;2023-04-15T11:28:01;3.30;;;1.40;;
11418;SDS011;32800;44.876;13.880;2023-04-15T11:30:28;3.10;;;1.00;;
11418;SDS011;32800;44.876;13.880;2023-04-15T11:32:57;2.90;;;1.02;;
11418;SDS011;32800;44.876;13.880;2023-04-15T11:35:23;3.13;;;1.00;;
11418;SDS011;32800;44.876;13.880;2023-04-15T11:37:49;2.30;;;1.20;;
11418;SDS011;32800;44.876;13.880;2023-04-15T11:40:21;4.90;;;1.47;;
11418;SDS011;32800;44.876;13.880;2023-04-15T11:48:24;2.27;;;1.07;;
11418;SDS011;32800;44.876;13.880;2023-04-15T11:53:23;6.00;;;1.07;;
11418;SDS011;32800;44.876;13.880;2023-04-15T11:55:50;3.30;;;1.17;;
11418;SDS011;32800;44.876;13.880;2023-04-15T11:58:21;3.93;;;1.00;;
11418;SDS011;32800;44.876;13.880;2023-04-15T12:00:55;5.03;;;1.60;;
11418;SDS011;32800;44.876;13.880;2023-04-15T12:03:23;7.07;;;1.53;;
11418;SDS011;32800;44.876;13.880;2023-04-15T12:11:20;4.00;;;1.10;;
11418;SDS011;32800;44.876;13.880;2023-04-15T12:17:00;4.93;;;1.13;;
11418;SDS011;32800;44.876;13.880;2023-04-15T12:19:34;2.57;;;1.20;;
11418;SDS011;32800;44.876;13.880;2023-04-15T12:22:03;2.27;;;1.00;;
11418;SDS011;32800;44.876;13.880;2023-04-15T12:24:31;1.90;;;1.00;;
11418;SDS011;32800;44.876;13.880;2023-04-15T12:27:00;2.17;;;1.20;;
11418;SDS011;32800;44.876;13.880;2023-04-15T12:29:27;2.87;;;1.20;;
11418;SDS011;32800;44.876;13.880;2023-04-15T12:31:54;3.10;;;1.30;;
11418;SDS011;32800;44.876;13.880;2023-04-15T12:34:25;3.63;;;1.33;;
11418;SDS011;32800;44.876;13.880;2023-04-15T12:36:58;3.03;;;1.33;;
11418;SDS011;32800;44.876;13.880;2023-04-15T12:39:25;3.13;;;0.93;;
11418;SDS011;32800;44.876;13.880;2023-04-15T12:41:52;4.00;;;1.27;;
11418;SDS011;32800;44.876;13.880;2023-04-15T12:44:18;2.73;;;1.10;;
11418;SDS011;32800;44.876;13.880;2023-04-15T12:46:45;3.70;;;1.10;;
11418;SDS011;32800;44.876;13.880;2023-04-15T12:49:10;2.67;;;1.17;;
11418;SDS011;32800;44.876;13.880;2023-04-15T12:51:38;2.90;;;1.40;;
11418;SDS011;32800;44.876;13.880;2023-04-15T12:54:04;4.57;;;1.40;;
11418;SDS011;32800;44.876;13.880;2023-04-15T12:56:30;3.70;;;1.30;;
11418;SDS011;32800;44.876;13.880;2023-04-15T12:58:55;2.70;;;1.30;;
11418;SDS011;32800;44.876;13.880;2023-04-15T13:01:21;5.03;;;1.23;;
11418;SDS011;32800;44.876;13.880;2023-04-15T13:03:47;3.60;;;1.40;;
11418;SDS011;32800;44.876;13.880;2023-04-15T13:06:14;3.57;;;1.30;;
11418;SDS011;32800;44.876;13.880;2023-04-15T13:08:40;5.80;;;1.40;;
11418;SDS011;32800;44.876;13.880;2023-04-15T13:11:06;5.97;;;1.17;;
11418;SDS011;32800;44.876;13.880;2023-04-15T13:13:31;3.47;;;1.20;;
11418;SDS011;32800;44.876;13.880;2023-04-15T13:15:57;4.40;;;1.47;;
11418;SDS011;32800;44.876;13.880;2023-04-15T13:18:23;3.47;;;1.40;;
11418;SDS011;32800;44.876;13.880;2023-04-15T13:20:49;4.23;;;1.23;;
11418;SDS011;32800;44.876;13.880;2023-04-15T13:23:15;4.00;;;1.20;;
11418;SDS011;32800;44.876;13.880;2023-04-15T13:25:41;2.43;;;1.00;;
11418;SDS011;32800;44.876;13.880;2023-04-15T13:28:06;4.53;;;1.20;;
11418;SDS011;32800;44.876;13.880;2023-04-15T13:30:32;3.50;;;1.40;;
11418;SDS011;32800;44.876;13.880;2023-04-15T13:32:57;4.37;;;1.47;;
11418;SDS011;32800;44.876;13.880;2023-04-15T13:35:23;4.23;;;1.27;;
11418;SDS011;32800;44.876;13.880;2023-04-15T13:37:48;3.53;;;1.10;;
11418;SDS011;32800;44.876;13.880;2023-04-15T13:40:14;2.63;;;1.20;;
11418;SDS011;32800;44.876;13.880;2023-04-15T13:42:40;1.83;;;1.07;;
11418;SDS011;32800;44.876;13.880;2023-04-15T13:45:06;3.00;;;1.10;;
11418;SDS011;32800;44.876;13.880;2023-04-15T13:47:32;3.10;;;0.90;;
11418;SDS011;32800;44.876;13.880;2023-04-15T13:49:58;5.57;;;1.27;;
11418;SDS011;32800;44.876;13.880;2023-04-15T13:52:23;4.23;;;1.33;;
11418;SDS011;32800;44.876;13.880;2023-04-15T13:54:49;4.70;;;1.30;;
11418;SDS011;32800;44.876;13.880;2023-04-15T13:57:15;3.40;;;1.33;;
11418;SDS011;32800;44.876;13.880;2023-04-15T13:59:40;3.27;;;1.47;;
11418;SDS011;32800;44.876;13.880;2023-04-15T14:02:06;3.90;;;1.20;;
11418;SDS011;32800;44.876;13.880;2023-04-15T14:04:31;8.20;;;1.30;;
11418;SDS011;32800;44.876;13.880;2023-04-15T14:06:57;3.80;;;1.30;;
11418;SDS011;32800;44.876;13.880;2023-04-15T14:09:23;2.43;;;1.00;;
11418;SDS011;32800;44.876;13.880;2023-04-15T14:11:49;2.37;;;1.17;;
11418;SDS011;32800;44.876;13.880;2023-04-15T14:14:15;3.90;;;1.30;;
11418;SDS011;32800;44.876;13.880;2023-04-15T14:16:40;4.43;;;1.50;;
11418;SDS011;32800;44.876;13.880;2023-04-15T14:19:06;5.80;;;1.30;;
11418;SDS011;32800;44.876;13.880;2023-04-15T14:21:31;2.57;;;1.10;;
11418;SDS011;32800;44.876;13.880;2023-04-15T14:23:58;6.47;;;1.10;;
11418;SDS011;32800;44.876;13.880;2023-04-15T14:26:23;2.30;;;1.17;;
11418;SDS011;32800;44.876;13.880;2023-04-15T14:28:49;6.07;;;1.60;;
11418;SDS011;32800;44.876;13.880;2023-04-15T14:31:15;3.30;;;1.40;;
11418;SDS011;32800;44.876;13.880;2023-04-15T14:33:40;2.50;;;1.23;;
11418;SDS011;32800;44.876;13.880;2023-04-15T14:36:06;4.97;;;1.33;;
11418;SDS011;32800;44.876;13.880;2023-04-15T14:38:33;1.57;;;0.80;;
11418;SDS011;32800;44.876;13.880;2023-04-15T14:41:03;5.30;;;1.47;;
11418;SDS011;32800;44.876;13.880;2023-04-15T14:43:28;5.30;;;1.47;;
11418;SDS011;32800;44.876;13.880;2023-04-15T14:45:54;6.33;;;1.40;;
11418;SDS011;32800;44.876;13.880;2023-04-15T14:48:20;2.47;;;1.20;;
11418;SDS011;32800;44.876;13.880;2023-04-15T14:50:45;2.57;;;1.17;;
11418;SDS011;32800;44.876;13.880;2023-04-15T14:53:11;3.00;;;1.13;;
11418;SDS011;32800;44.876;13.880;2023-04-15T14:55:36;3.13;;;1.20;;
11418;SDS011;32800;44.876;13.880;2023-04-15T14:58:02;2.70;;;1.20;;
11418;SDS011;32800;44.876;13.880;2023-04-15T15:00:28;3.73;;;1.20;;